Time;durP1;ratioP1;P1;durP2;ratioP2;P2;SDS_P1;SDS_P2;PMS_P1;PMS_P2;Temp;Humidity;BMP_temperature;BMP_pressure;BME280_temperature;BME280_humidity;BME280_pressure;Samples;Min_cycle;Max_cycle;Signal;HPM_P1;HPM_P2
2021/12/18 00:00:43;;;;;;;;;;;1.40;99.90;;;;;;5092056;28;19983;-62
2021/12/18 00:03:10;;;;;;;;;;;1.30;99.90;;;;;;5068859;28;19963;-61
2021/12/18 00:05:37;;;;;;;;;;;1.20;99.90;;;;;;5087753;28;19920;-61
2021/12/18 00:08:04;;;;;;;;;;;1.30;99.90;;;;;;5081076;28;20380;-61
2021/12/18 00:10:30;;;;;;;;;;;1.30;99.90;;;;;;5071682;28;20432;-61
2021/12/18 00:12:59;;;;;;;;;;;1.30;99.90;;;;;;5072716;28;19927;-61
2021/12/18 00:15:26;;;;;;;;;;;1.30;99.90;;;;;;5091000;28;19928;-61
2021/12/18 00:17:53;;;;;;;;;;;1.40;99.90;;;;;;5091929;28;19920;-61
2021/12/18 00:20:20;;;;;;;;;;;1.40;99.90;;;;;;5091755;28;19920;-62
2021/12/18 00:22:46;;;;;;;;;;;1.30;99.90;;;;;;5091859;28;19965;-62
2021/12/18 00:25:13;;;;;;;;;;;1.30;99.90;;;;;;5091379;28;19920;-62
2021/12/18 00:27:40;;;;;;;;;;;1.40;99.90;;;;;;5091785;28;19973;-61
2021/12/18 00:30:08;;;;;;;;;;;1.40;99.90;;;;;;5091670;28;19920;-61
2021/12/18 00:32:36;;;;;;;;;;;1.40;99.90;;;;;;5091864;28;20014;-61
2021/12/18 00:35:03;;;;;;;;;;;1.40;99.90;;;;;;5091561;28;19920;-62
2021/12/18 00:37:30;;;;;;;;;;;1.40;99.90;;;;;;5091539;28;19920;-62
2021/12/18 00:39:59;;;;;;;;;;;1.50;99.90;;;;;;5090094;28;19920;-62
2021/12/18 00:45:06;;;;;;;;;;;1.50;99.90;;;;;;5089064;28;20514;-61
2021/12/18 00:47:33;;;;;;;;;;;1.40;99.90;;;;;;5071333;28;19920;-61
2021/12/18 00:50:01;;;;;;;;;;;1.50;99.90;;;;;;5073019;28;19920;-62
2021/12/18 00:52:27;;;;;;;;;;;1.50;99.90;;;;;;5075208;28;19974;-61
2021/12/18 00:54:54;;;;;;;;;;;1.40;99.90;;;;;;5074648;28;19924;-61
2021/12/18 00:57:21;;;;;;;;;;;1.30;99.90;;;;;;5074744;28;19973;-61
2021/12/18 00:59:51;;;;;;;;;;;1.20;99.90;;;;;;5075005;28;19920;-61
2021/12/18 01:02:18;;;;;;;;;;;1.20;99.90;;;;;;5074996;28;20033;-61
2021/12/18 01:04:45;;;;;;;;;;;1.20;99.90;;;;;;5074872;28;19920;-61
2021/12/18 01:07:12;;;;;;;;;;;1.20;99.90;;;;;;5074688;28;20362;-61
2021/12/18 01:12:14;;;;;;;;;;;1.20;99.90;;;;;;5074898;28;19970;-61
2021/12/18 01:23:05;;;;;;;;;;;1.20;99.90;;;;;;5074534;28;19920;-61
2021/12/18 01:25:32;;;;;;;;;;;1.30;99.90;;;;;;5074143;28;20031;-61
2021/12/18 01:27:59;;;;;;;;;;;1.40;99.90;;;;;;5074186;28;20620;-61
2021/12/18 01:30:25;;;;;;;;;;;1.40;99.90;;;;;;5074447;28;19920;-61
2021/12/18 01:32:52;;;;;;;;;;;1.40;99.90;;;;;;5074470;28;19920;-62
2021/12/18 01:35:19;;;;;;;;;;;1.40;99.90;;;;;;5073943;28;19928;-61
2021/12/18 01:37:46;;;;;;;;;;;1.40;99.90;;;;;;5074338;28;19920;-61
2021/12/18 01:40:14;;;;;;;;;;;1.40;99.90;;;;;;5074058;28;19921;-61
2021/12/18 01:53:24;;;;;;;;;;;1.50;99.90;;;;;;5073970;28;19970;-62
2021/12/18 01:55:52;;;;;;;;;;;1.50;99.90;;;;;;5073607;28;19928;-62
2021/12/18 01:58:22;;;;;;;;;;;1.40;99.90;;;;;;5074115;28;19920;-62
2021/12/18 02:00:54;;;;;;;;;;;1.50;99.90;;;;;;5073818;28;19963;-62
2021/12/18 02:03:21;;;;;;;;;;;1.50;99.90;;;;;;5072518;28;19927;-62
2021/12/18 02:05:49;;;;;;;;;;;1.50;99.90;;;;;;5073375;28;20019;-62
2021/12/18 02:08:23;;;;;;;;;;;1.40;99.90;;;;;;5073742;28;19924;-62
2021/12/18 02:14:04;;;;;;;;;;;1.40;99.90;;;;;;5073756;28;19920;-62
2021/12/18 02:21:54;;;;;;;;;;;1.40;99.90;;;;;;5073530;28;19969;-62
2021/12/18 02:24:24;;;;;;;;;;;1.30;99.90;;;;;;5072045;28;19927;-61
2021/12/18 02:26:51;;;;;;;;;;;1.30;99.90;;;;;;5072840;28;19920;-62
2021/12/18 02:29:18;;;;;;;;;;;1.20;99.90;;;;;;5073291;28;19928;-62
2021/12/18 02:31:45;;;;;;;;;;;1.20;99.90;;;;;;5073326;28;19924;-62
2021/12/18 02:34:25;;;;;;;;;;;1.20;99.90;;;;;;5073293;28;19947;-62
2021/12/18 02:36:53;;;;;;;;;;;1.20;99.90;;;;;;5072807;28;20347;-62
2021/12/18 02:42:18;;;;;;;;;;;1.00;99.90;;;;;;5049859;28;19966;-62
2021/12/18 02:44:46;;;;;;;;;;;1.00;99.90;;;;;;5072827;28;19943;-62
2021/12/18 02:47:13;;;;;;;;;;;0.90;99.90;;;;;;5072610;28;20380;-62
2021/12/18 02:49:48;;;;;;;;;;;1.00;99.90;;;;;;5072900;28;19976;-62
2021/12/18 02:52:16;;;;;;;;;;;1.00;99.90;;;;;;5073008;28;19924;-62
2021/12/18 02:54:43;;;;;;;;;;;0.80;99.90;;;;;;5072830;28;19963;-62
2021/12/18 02:57:10;;;;;;;;;;;0.80;99.90;;;;;;5072374;28;19920;-62
2021/12/18 02:59:48;;;;;;;;;;;0.70;99.90;;;;;;5072779;28;20381;-61
2021/12/18 03:02:15;;;;;;;;;;;0.70;99.90;;;;;;5072852;28;20416;-62
2021/12/18 03:04:45;;;;;;;;;;;0.80;99.90;;;;;;5072674;28;19967;-62
2021/12/18 03:07:15;;;;;;;;;;;0.80;99.90;;;;;;5072185;28;19927;-62
2021/12/18 03:19:06;;;;;;;;;;;0.80;99.90;;;;;;5072560;28;19921;-62
2021/12/18 03:26:40;;;;;;;;;;;0.90;99.90;;;;;;5092217;28;19920;-59
2021/12/18 03:29:07;;;;;;;;;;;0.90;99.90;;;;;;5084521;28;19973;-59
2021/12/18 03:31:34;;;;;;;;;;;0.80;99.90;;;;;;5077149;28;19963;-59
2021/12/18 03:34:01;;;;;;;;;;;0.80;99.90;;;;;;5072299;28;20335;-60
2021/12/18 03:36:28;;;;;;;;;;;0.80;99.90;;;;;;5071552;28;19924;-60
2021/12/18 03:38:54;;;;;;;;;;;0.80;99.90;;;;;;5072180;28;19966;-60
2021/12/18 03:41:21;;;;;;;;;;;0.80;99.90;;;;;;5072058;28;19926;-60
2021/12/18 03:43:48;;;;;;;;;;;0.80;99.90;;;;;;5072038;28;20003;-59
2021/12/18 03:46:15;;;;;;;;;;;0.80;99.90;;;;;;5071622;28;19921;-59
2021/12/18 03:48:41;;;;;;;;;;;0.70;99.90;;;;;;5072093;28;19926;-60
2021/12/18 03:51:09;;;;;;;;;;;0.70;99.90;;;;;;5071814;28;19928;-59
2021/12/18 03:53:36;;;;;;;;;;;0.70;99.90;;;;;;5072131;28;19927;-59
2021/12/18 03:56:02;;;;;;;;;;;0.70;99.90;;;;;;5071467;28;19924;-59
2021/12/18 03:58:29;;;;;;;;;;;0.70;99.90;;;;;;5071914;28;19924;-60
2021/12/18 04:00:56;;;;;;;;;;;0.60;99.90;;;;;;5072271;28;20326;-58
2021/12/18 04:03:23;;;;;;;;;;;0.70;99.90;;;;;;5071827;28;19926;-57
2021/12/18 04:05:50;;;;;;;;;;;0.70;99.90;;;;;;5071322;28;20284;-58
2021/12/18 04:08:17;;;;;;;;;;;0.70;99.90;;;;;;5071921;28;19959;-58
2021/12/18 04:10:44;;;;;;;;;;;0.70;99.90;;;;;;5071647;28;19974;-58
2021/12/18 04:13:11;;;;;;;;;;;0.70;99.90;;;;;;5071854;28;20510;-58
2021/12/18 04:15:38;;;;;;;;;;;0.70;99.90;;;;;;5071347;28;19966;-58
2021/12/18 04:18:05;;;;;;;;;;;0.70;99.90;;;;;;5071719;28;20427;-58
2021/12/18 04:20:31;;;;;;;;;;;0.80;99.90;;;;;;5071595;28;19924;-58
2021/12/18 04:22:58;;;;;;;;;;;0.80;99.90;;;;;;5071743;28;20411;-58
2021/12/18 04:25:25;;;;;;;;;;;0.70;99.90;;;;;;5075500;28;20300;-58
2021/12/18 04:27:52;;;;;;;;;;;0.70;99.90;;;;;;5075578;28;19928;-58
2021/12/18 04:30:19;;;;;;;;;;;0.80;99.90;;;;;;5075667;28;19920;-58
2021/12/18 04:32:46;;;;;;;;;;;0.70;99.90;;;;;;5075663;28;20392;-58
2021/12/18 04:35:13;;;;;;;;;;;0.70;99.90;;;;;;5074891;28;19943;-58
2021/12/18 04:37:40;;;;;;;;;;;0.70;99.90;;;;;;5075488;28;20428;-58
2021/12/18 04:40:07;;;;;;;;;;;0.80;99.90;;;;;;5075454;28;19920;-58
2021/12/18 04:42:34;;;;;;;;;;;0.80;99.90;;;;;;5075219;28;19920;-58
2021/12/18 04:45:02;;;;;;;;;;;0.90;99.90;;;;;;5075354;28;20381;-58
2021/12/18 04:47:28;;;;;;;;;;;0.80;99.90;;;;;;5074855;28;20036;-58
2021/12/18 04:49:55;;;;;;;;;;;0.80;99.90;;;;;;5075189;28;19974;-58
2021/12/18 04:52:23;;;;;;;;;;;0.90;99.90;;;;;;5075094;28;19921;-58
2021/12/18 04:54:50;;;;;;;;;;;0.80;99.90;;;;;;5074988;28;19920;-58
2021/12/18 04:57:17;;;;;;;;;;;0.80;99.90;;;;;;5074800;28;20037;-60
2021/12/18 04:59:44;;;;;;;;;;;0.90;99.90;;;;;;5075042;28;20335;-60
2021/12/18 05:02:13;;;;;;;;;;;0.80;99.90;;;;;;5075311;28;20323;-60
2021/12/18 05:04:39;;;;;;;;;;;0.90;99.90;;;;;;5074995;28;19982;-60
2021/12/18 05:07:06;;;;;;;;;;;0.80;99.90;;;;;;5074270;28;20303;-60
2021/12/18 05:09:33;;;;;;;;;;;0.90;99.90;;;;;;5074841;28;19952;-58
2021/12/18 05:12:00;;;;;;;;;;;0.90;99.90;;;;;;5074846;28;19920;-60
2021/12/18 05:14:27;;;;;;;;;;;0.90;99.90;;;;;;5074929;28;20020;-60
2021/12/18 05:16:54;;;;;;;;;;;0.90;99.90;;;;;;5074415;28;19974;-59
2021/12/18 05:19:20;;;;;;;;;;;0.70;99.90;;;;;;5074289;28;19924;-60
2021/12/18 05:21:47;;;;;;;;;;;0.70;99.90;;;;;;5074726;28;19920;-60
2021/12/18 05:24:14;;;;;;;;;;;0.70;99.90;;;;;;5074907;28;20356;-60
2021/12/18 05:26:41;;;;;;;;;;;0.70;99.90;;;;;;5074167;28;19974;-60
2021/12/18 05:29:08;;;;;;;;;;;0.70;99.90;;;;;;5074536;28;19920;-60
2021/12/18 05:31:35;;;;;;;;;;;0.70;99.90;;;;;;5074553;28;19920;-60
2021/12/18 05:34:04;;;;;;;;;;;0.70;99.90;;;;;;5074150;28;19967;-60
2021/12/18 05:36:35;;;;;;;;;;;0.60;99.90;;;;;;5073088;28;19931;-60
2021/12/18 05:39:06;;;;;;;;;;;0.70;99.90;;;;;;5074382;28;19963;-60
2021/12/18 05:41:34;;;;;;;;;;;0.70;99.90;;;;;;5074127;28;20195;-60
2021/12/18 05:44:00;;;;;;;;;;;0.70;99.90;;;;;;5074311;28;19956;-60
2021/12/18 05:46:28;;;;;;;;;;;0.70;99.90;;;;;;5073766;28;19974;-60
2021/12/18 05:48:54;;;;;;;;;;;0.70;99.90;;;;;;5074169;28;19920;-60
2021/12/18 05:51:21;;;;;;;;;;;0.70;99.90;;;;;;5074221;28;19989;-60
2021/12/18 05:53:48;;;;;;;;;;;0.70;99.90;;;;;;5074081;28;19921;-60
2021/12/18 05:56:15;;;;;;;;;;;0.60;99.90;;;;;;5073557;28;19924;-59
2021/12/18 05:58:43;;;;;;;;;;;0.60;99.90;;;;;;5056172;28;19952;-58
2021/12/18 06:01:12;;;;;;;;;;;0.50;99.90;;;;;;5073979;28;19994;-58
2021/12/18 06:03:39;;;;;;;;;;;0.50;99.90;;;;;;5073991;28;19921;-58
2021/12/18 06:06:06;;;;;;;;;;;0.40;99.90;;;;;;5073122;28;19947;-58
2021/12/18 06:08:34;;;;;;;;;;;0.40;99.90;;;;;;5073760;28;20007;-58
2021/12/18 06:11:07;;;;;;;;;;;0.40;99.90;;;;;;5073739;28;19928;-58
2021/12/18 06:13:35;;;;;;;;;;;0.40;99.90;;;;;;5073575;28;20341;-60
2021/12/18 06:16:05;;;;;;;;;;;0.40;99.90;;;;;;5073228;28;20343;-58
2021/12/18 06:18:36;;;;;;;;;;;0.40;99.90;;;;;;5073366;28;19920;-58
2021/12/18 06:21:03;;;;;;;;;;;0.40;99.90;;;;;;5073732;28;19925;-58
2021/12/18 06:23:30;;;;;;;;;;;0.20;99.90;;;;;;5073520;28;19959;-58
2021/12/18 06:25:56;;;;;;;;;;;0.20;99.90;;;;;;5072979;28;19920;-58
2021/12/18 06:28:23;;;;;;;;;;;0.30;99.90;;;;;;5073355;28;19977;-58
2021/12/18 06:30:51;;;;;;;;;;;0.30;99.90;;;;;;5073319;28;19921;-58
2021/12/18 06:33:18;;;;;;;;;;;0.30;99.90;;;;;;5073215;28;19947;-58
2021/12/18 06:35:45;;;;;;;;;;;0.30;99.90;;;;;;5072897;28;19920;-58
2021/12/18 06:38:11;;;;;;;;;;;0.40;99.90;;;;;;5073288;28;19921;-58
2021/12/18 06:40:38;;;;;;;;;;;0.50;99.90;;;;;;5073025;28;20368;-58
2021/12/18 06:43:05;;;;;;;;;;;0.40;99.90;;;;;;5073021;28;19946;-58
2021/12/18 06:45:31;;;;;;;;;;;0.40;99.90;;;;;;5072705;28;19924;-58
2021/12/18 06:47:58;;;;;;;;;;;0.40;99.90;;;;;;5072932;28;19969;-58
2021/12/18 06:50:25;;;;;;;;;;;0.30;99.90;;;;;;5072838;28;20403;-60
2021/12/18 06:52:52;;;;;;;;;;;0.30;99.90;;;;;;5072854;28;19946;-58
2021/12/18 06:55:19;;;;;;;;;;;0.30;99.90;;;;;;5072319;28;19920;-57
2021/12/18 06:57:46;;;;;;;;;;;0.30;99.90;;;;;;5072849;28;19974;-60
2021/12/18 07:00:14;;;;;;;;;;;0.40;99.90;;;;;;5072567;28;20018;-58
2021/12/18 07:02:41;;;;;;;;;;;0.30;99.90;;;;;;5072439;28;19977;-58
2021/12/18 07:05:08;;;;;;;;;;;0.30;99.90;;;;;;5072393;28;19951;-58
2021/12/18 07:07:35;;;;;;;;;;;0.30;99.90;;;;;;5072326;28;19964;-58
2021/12/18 07:10:03;;;;;;;;;;;0.30;99.90;;;;;;5072640;28;19951;-60
2021/12/18 07:12:30;;;;;;;;;;;0.30;99.90;;;;;;5054714;28;20381;-57
2021/12/18 07:14:57;;;;;;;;;;;0.30;99.90;;;;;;5072253;28;20012;-57
2021/12/18 07:17:24;;;;;;;;;;;0.30;99.90;;;;;;5071982;28;19921;-60
2021/12/18 07:19:51;;;;;;;;;;;0.40;99.90;;;;;;5072280;28;19932;-59
2021/12/18 07:22:17;;;;;;;;;;;0.30;99.90;;;;;;5072084;28;19973;-59
2021/12/18 07:24:44;;;;;;;;;;;0.20;99.90;;;;;;5072309;28;20015;-57
2021/12/18 07:27:11;;;;;;;;;;;0.20;99.90;;;;;;5071950;28;19928;-60
2021/12/18 07:29:37;;;;;;;;;;;0.10;99.90;;;;;;5072383;28;19981;-60
2021/12/18 07:32:04;;;;;;;;;;;0.20;99.90;;;;;;5091378;28;19921;-59
2021/12/18 07:34:51;;;;;;;;;;;0.20;99.90;;;;;;5112587;28;19972;-59
2021/12/18 07:37:18;;;;;;;;;;;0.10;99.90;;;;;;5094257;28;20349;-59
2021/12/18 07:39:44;;;;;;;;;;;0.00;99.90;;;;;;5112717;28;19965;-59
2021/12/18 07:42:11;;;;;;;;;;;0.00;99.90;;;;;;5112611;28;19924;-59
2021/12/18 07:44:40;;;;;;;;;;;0.10;99.90;;;;;;5112670;28;19923;-59
2021/12/18 07:47:07;;;;;;;;;;;0.10;99.90;;;;;;5111667;28;19925;-59
2021/12/18 07:49:38;;;;;;;;;;;0.00;99.90;;;;;;5112280;28;19923;-59
2021/12/18 07:52:04;;;;;;;;;;;0.00;99.90;;;;;;5112662;28;19920;-59
2021/12/18 07:54:31;;;;;;;;;;;0.00;99.90;;;;;;5112555;28;19927;-59
2021/12/18 07:56:58;;;;;;;;;;;0.00;99.90;;;;;;5112172;28;19943;-59
2021/12/18 07:59:25;;;;;;;;;;;-0.10;99.90;;;;;;5111959;28;19969;-59
2021/12/18 08:01:51;;;;;;;;;;;-0.10;99.90;;;;;;5099023;28;20393;-59
2021/12/18 08:04:18;;;;;;;;;;;0.00;99.90;;;;;;5092077;28;19966;-59
2021/12/18 08:06:45;;;;;;;;;;;0.10;99.90;;;;;;5091536;28;19924;-59
2021/12/18 08:09:12;;;;;;;;;;;0.10;99.90;;;;;;5092075;28;20338;-59
2021/12/18 08:11:38;;;;;;;;;;;0.10;99.90;;;;;;5091661;28;19986;-59
2021/12/18 08:14:05;;;;;;;;;;;0.10;99.90;;;;;;5091960;28;19920;-59
2021/12/18 08:16:32;;;;;;;;;;;0.20;99.90;;;;;;5091198;28;20023;-59
2021/12/18 08:18:59;;;;;;;;;;;0.20;99.90;;;;;;5091773;28;19970;-59
2021/12/18 08:21:26;;;;;;;;;;;0.20;99.90;;;;;;5091815;28;19965;-59
2021/12/18 08:23:52;;;;;;;;;;;0.10;99.90;;;;;;5091818;28;19974;-60
2021/12/18 08:26:19;;;;;;;;;;;0.10;99.90;;;;;;5091481;28;19920;-59
2021/12/18 08:28:46;;;;;;;;;;;0.10;99.90;;;;;;5091624;28;19924;-59
2021/12/18 08:31:13;;;;;;;;;;;0.10;99.90;;;;;;5091803;28;19920;-59
2021/12/18 08:33:40;;;;;;;;;;;0.10;99.90;;;;;;5091598;28;19924;-59
2021/12/18 08:36:06;;;;;;;;;;;0.20;99.90;;;;;;5091341;28;19920;-59
2021/12/18 08:38:33;;;;;;;;;;;0.20;99.90;;;;;;5091703;28;19924;-60
2021/12/18 08:41:00;;;;;;;;;;;0.40;99.90;;;;;;5091718;28;19920;-59
2021/12/18 08:43:27;;;;;;;;;;;0.30;99.90;;;;;;5091666;28;19920;-59
2021/12/18 08:45:53;;;;;;;;;;;0.30;99.90;;;;;;5091219;28;20275;-59
2021/12/18 08:48:21;;;;;;;;;;;0.40;99.90;;;;;;5091443;28;19920;-59
2021/12/18 08:50:49;;;;;;;;;;;0.40;99.90;;;;;;5091543;28;20621;-59
2021/12/18 08:53:16;;;;;;;;;;;0.40;99.90;;;;;;5091489;28;20362;-59
2021/12/18 08:55:42;;;;;;;;;;;0.40;99.90;;;;;;5091204;28;19920;-59
2021/12/18 08:58:10;;;;;;;;;;;0.50;99.90;;;;;;5091742;28;19942;-59
2021/12/18 09:00:36;;;;;;;;;;;0.40;99.90;;;;;;5091533;28;20341;-59
2021/12/18 09:03:04;;;;;;;;;;;0.30;99.90;;;;;;5091381;28;19919;-59
2021/12/18 09:05:31;;;;;;;;;;;0.40;99.90;;;;;;5091029;28;19924;-59
2021/12/18 09:07:58;;;;;;;;;;;0.40;99.90;;;;;;5091461;28;20337;-59
2021/12/18 09:10:25;;;;;;;;;;;0.50;99.90;;;;;;5092206;28;20330;-59
2021/12/18 09:12:53;;;;;;;;;;;0.60;99.90;;;;;;5094968;28;19930;-59
2021/12/18 09:15:20;;;;;;;;;;;0.60;99.90;;;;;;5094476;28;20403;-59
2021/12/18 09:17:47;;;;;;;;;;;0.60;99.90;;;;;;5095056;28;19920;-59
2021/12/18 09:20:14;;;;;;;;;;;0.70;99.90;;;;;;5094767;28;19926;-59
2021/12/18 09:22:41;;;;;;;;;;;0.70;99.90;;;;;;5077007;28;19919;-59
2021/12/18 09:25:08;;;;;;;;;;;0.70;99.90;;;;;;5094591;28;19920;-59
2021/12/18 09:27:35;;;;;;;;;;;0.60;99.90;;;;;;5094582;28;20269;-59
2021/12/18 09:30:03;;;;;;;;;;;0.70;99.90;;;;;;5094713;28;19919;-59
2021/12/18 09:32:30;;;;;;;;;;;0.80;99.90;;;;;;5094700;28;19923;-59
2021/12/18 09:34:57;;;;;;;;;;;0.70;99.90;;;;;;5094767;28;19920;-59
2021/12/18 09:37:23;;;;;;;;;;;0.80;99.90;;;;;;5093917;28;20008;-59
2021/12/18 09:39:50;;;;;;;;;;;0.80;99.90;;;;;;5094800;28;19969;-59
2021/12/18 09:42:17;;;;;;;;;;;0.90;99.90;;;;;;5093008;28;20368;-59
2021/12/18 09:44:47;;;;;;;;;;;0.90;99.90;;;;;;5093450;28;19920;-59
2021/12/18 09:47:14;;;;;;;;;;;0.90;99.90;;;;;;5093110;28;19919;-59
2021/12/18 09:49:41;;;;;;;;;;;1.00;99.90;;;;;;5093691;28;19920;-59
2021/12/18 09:52:07;;;;;;;;;;;1.10;99.90;;;;;;5094062;28;19969;-59
2021/12/18 09:54:34;;;;;;;;;;;1.10;99.90;;;;;;5094322;28;19977;-59
2021/12/18 09:57:01;;;;;;;;;;;1.20;99.90;;;;;;5093776;28;20380;-59
2021/12/18 09:59:28;;;;;;;;;;;1.20;99.90;;;;;;5093868;28;20018;-59
2021/12/18 10:01:55;;;;;;;;;;;1.20;99.90;;;;;;5094193;28;19942;-59
2021/12/18 10:04:30;;;;;;;;;;;1.20;99.90;;;;;;5094096;28;19965;-59
2021/12/18 10:06:58;;;;;;;;;;;1.10;99.90;;;;;;5093472;28;19920;-59
2021/12/18 10:09:25;;;;;;;;;;;1.20;99.90;;;;;;5093880;28;19969;-59
2021/12/18 10:11:54;;;;;;;;;;;1.20;99.90;;;;;;5093841;28;19920;-59
2021/12/18 10:14:31;;;;;;;;;;;1.20;99.90;;;;;;5093897;28;19920;-59
2021/12/18 10:16:58;;;;;;;;;;;1.20;99.90;;;;;;5093501;28;19920;-59
2021/12/18 10:19:29;;;;;;;;;;;1.30;99.90;;;;;;5093391;28;19924;-59
2021/12/18 10:21:57;;;;;;;;;;;1.40;99.90;;;;;;5093401;28;19930;-59
2021/12/18 10:24:24;;;;;;;;;;;1.60;99.90;;;;;;5093629;28;20042;-59
2021/12/18 10:26:51;;;;;;;;;;;1.50;99.90;;;;;;5093177;28;19919;-59
2021/12/18 10:29:35;;;;;;;;;;;1.60;99.90;;;;;;5093447;28;20362;-59
2021/12/18 10:32:03;;;;;;;;;;;1.60;99.90;;;;;;5093573;28;19945;-59
2021/12/18 10:34:30;;;;;;;;;;;1.60;99.90;;;;;;5093521;28;19959;-59
2021/12/18 10:37:06;;;;;;;;;;;1.60;99.90;;;;;;5093046;28;20431;-59
2021/12/18 10:39:34;;;;;;;;;;;1.70;99.90;;;;;;5093129;28;19928;-59
2021/12/18 10:42:17;;;;;;;;;;;1.80;99.90;;;;;;5093071;28;19924;-59
2021/12/18 10:44:59;;;;;;;;;;;1.80;99.90;;;;;;5093249;28;19973;-59
2021/12/18 10:47:26;;;;;;;;;;;2.10;99.90;;;;;;5092942;28;19920;-59
2021/12/18 10:49:53;;;;;;;;;;;2.00;99.90;;;;;;5092958;28;19978;-59
2021/12/18 10:52:35;;;;;;;;;;;2.10;99.90;;;;;;5093329;28;19927;-59
2021/12/18 10:55:05;;;;;;;;;;;2.10;99.90;;;;;;5074815;28;19920;-59
2021/12/18 10:57:32;;;;;;;;;;;2.20;99.90;;;;;;5093291;28;19920;-59
2021/12/18 10:59:58;;;;;;;;;;;2.30;99.90;;;;;;5092391;28;19927;-59
2021/12/18 11:02:27;;;;;;;;;;;2.20;99.90;;;;;;5092539;28;20298;-59
2021/12/18 11:05:11;;;;;;;;;;;2.10;99.90;;;;;;5092646;28;19923;-59
2021/12/18 11:07:42;;;;;;;;;;;2.30;99.90;;;;;;5092902;28;19970;-59
2021/12/18 11:10:42;;;;;;;;;;;2.40;99.90;;;;;;5092800;28;20002;-59
2021/12/18 11:15:55;;;;;;;;;;;2.30;99.90;;;;;;5092278;28;19938;-59
2021/12/18 11:18:22;;;;;;;;;;;2.30;99.90;;;;;;5092413;28;19927;-59
2021/12/18 11:20:51;;;;;;;;;;;2.20;99.90;;;;;;5092306;28;19924;-59
2021/12/18 11:23:21;;;;;;;;;;;2.10;99.90;;;;;;5092426;28;20376;-59
2021/12/18 11:25:48;;;;;;;;;;;2.20;99.90;;;;;;5092136;28;19959;-60
2021/12/18 11:28:15;;;;;;;;;;;2.20;99.90;;;;;;5092432;28;19931;-60
2021/12/18 11:30:42;;;;;;;;;;;2.10;99.90;;;;;;5092421;28;19920;-60
2021/12/18 11:33:09;;;;;;;;;;;2.10;99.90;;;;;;5091665;28;19965;-60
2021/12/18 11:35:36;;;;;;;;;;;2.00;99.90;;;;;;5092106;28;19920;-60
2021/12/18 11:38:07;;;;;;;;;;;2.00;99.90;;;;;;5092390;28;19920;-59
2021/12/18 11:40:38;;;;;;;;;;;2.00;99.90;;;;;;5092120;28;20377;-60
2021/12/18 11:43:06;;;;;;;;;;;2.00;99.90;;;;;;5092271;28;19927;-59
2021/12/18 11:45:34;;;;;;;;;;;1.90;99.90;;;;;;5091864;28;19926;-59
2021/12/18 11:48:02;;;;;;;;;;;1.90;99.90;;;;;;5092163;28;19924;-59
2021/12/18 11:50:32;;;;;;;;;;;1.80;99.90;;;;;;5092144;28;20341;-59
2021/12/18 11:53:02;;;;;;;;;;;1.80;99.90;;;;;;5092006;28;19927;-60
2021/12/18 11:55:31;;;;;;;;;;;1.90;99.90;;;;;;5091778;28;19920;-60
2021/12/18 11:58:00;;;;;;;;;;;1.90;99.90;;;;;;5092136;28;19939;-59
2021/12/18 12:00:35;;;;;;;;;;;1.80;99.90;;;;;;5092043;28;19920;-60
2021/12/18 12:03:03;;;;;;;;;;;1.90;99.90;;;;;;5091948;28;19955;-59
2021/12/18 12:05:41;;;;;;;;;;;1.80;99.90;;;;;;5091888;28;19920;-60
2021/12/18 12:08:22;;;;;;;;;;;1.90;99.90;;;;;;5091967;28;19920;-60
2021/12/18 12:11:15;;;;;;;;;;;1.90;99.90;;;;;;5092129;28;19923;-60
2021/12/18 12:14:00;;;;;;;;;;;2.00;99.90;;;;;;5091894;28;19973;-60
2021/12/18 12:16:43;;;;;;;;;;;2.00;99.90;;;;;;5091606;28;20338;-60
2021/12/18 12:19:10;;;;;;;;;;;1.90;99.90;;;;;;5091869;28;19927;-60
2021/12/18 12:21:44;;;;;;;;;;;2.00;99.90;;;;;;5091712;28;19924;-59
2021/12/18 12:24:12;;;;;;;;;;;2.10;99.90;;;;;;5091928;28;19919;-60
2021/12/18 12:26:39;;;;;;;;;;;2.20;99.90;;;;;;5091190;28;19977;-60
2021/12/18 12:29:07;;;;;;;;;;;2.10;99.90;;;;;;5091743;28;19920;-59
2021/12/18 12:31:34;;;;;;;;;;;2.10;99.90;;;;;;5091875;28;19920;-60
2021/12/18 12:34:20;;;;;;;;;;;2.00;99.90;;;;;;5091658;28;19965;-58
2021/12/18 12:36:47;;;;;;;;;;;2.00;99.90;;;;;;5091320;28;19924;-58
2021/12/18 12:39:14;;;;;;;;;;;2.10;99.90;;;;;;5091065;28;19931;-57
2021/12/18 12:41:48;;;;;;;;;;;2.10;99.90;;;;;;5091492;28;20376;-57
2021/12/18 12:44:28;;;;;;;;;;;2.10;99.90;;;;;;5089323;28;19946;-58
2021/12/18 12:47:23;;;;;;;;;;;2.20;99.90;;;;;;5092075;28;20332;-60
2021/12/18 12:49:52;;;;;;;;;;;2.20;99.90;;;;;;5088983;28;20307;-58
2021/12/18 12:52:19;;;;;;;;;;;2.30;99.90;;;;;;5095119;28;20024;-60
2021/12/18 12:55:12;;;;;;;;;;;2.30;99.90;;;;;;5094942;28;19924;-58
2021/12/18 12:57:44;;;;;;;;;;;2.30;99.90;;;;;;5086518;28;19973;-59
2021/12/18 13:00:11;;;;;;;;;;;2.40;99.90;;;;;;5095012;28;19920;-59
2021/12/18 13:02:39;;;;;;;;;;;2.40;99.90;;;;;;5091712;28;19962;-59
2021/12/18 13:05:08;;;;;;;;;;;2.50;99.90;;;;;;5093915;28;19930;-59
2021/12/18 13:07:35;;;;;;;;;;;2.50;99.90;;;;;;5091581;28;19924;-60
2021/12/18 13:10:03;;;;;;;;;;;2.50;99.90;;;;;;5083904;28;20331;-60
2021/12/18 13:12:29;;;;;;;;;;;2.40;99.90;;;;;;5075528;28;19928;-60
2021/12/18 13:14:56;;;;;;;;;;;2.40;99.90;;;;;;5078775;28;19928;-59
2021/12/18 13:17:25;;;;;;;;;;;2.40;99.90;;;;;;5080395;28;19973;-60
2021/12/18 13:20:04;;;;;;;;;;;2.30;99.90;;;;;;5076600;28;19920;-59
2021/12/18 13:22:33;;;;;;;;;;;2.40;99.90;;;;;;5076353;28;19924;-55
2021/12/18 13:25:07;;;;;;;;;;;2.30;99.90;;;;;;5076716;28;20338;-54
2021/12/18 13:27:36;;;;;;;;;;;2.30;99.90;;;;;;5076108;28;19924;-53
2021/12/18 13:30:13;;;;;;;;;;;2.40;99.90;;;;;;5076939;28;20015;-52
2021/12/18 13:32:52;;;;;;;;;;;2.40;99.90;;;;;;5076403;28;19947;-54
2021/12/18 13:35:20;;;;;;;;;;;2.40;99.90;;;;;;5075218;28;19974;-52
2021/12/18 13:38:00;;;;;;;;;;;2.40;99.90;;;;;;5075974;28;19924;-54
2021/12/18 13:40:28;;;;;;;;;;;2.40;99.90;;;;;;5075695;28;19924;-51
2021/12/18 13:43:05;;;;;;;;;;;2.40;99.90;;;;;;5077018;28;19931;-52
2021/12/18 13:45:34;;;;;;;;;;;2.40;99.90;;;;;;5075219;28;19948;-54
2021/12/18 13:48:02;;;;;;;;;;;2.30;99.90;;;;;;5077048;28;19946;-53
2021/12/18 13:50:30;;;;;;;;;;;2.30;99.90;;;;;;5075208;28;19948;-52
2021/12/18 13:53:01;;;;;;;;;;;2.30;99.90;;;;;;5076890;28;20002;-52
2021/12/18 13:55:43;;;;;;;;;;;2.30;99.90;;;;;;5075010;28;19924;-55
2021/12/18 13:58:12;;;;;;;;;;;2.20;99.90;;;;;;5076311;28;20036;-55
2021/12/18 14:00:58;;;;;;;;;;;2.10;99.90;;;;;;5075070;28;20397;-55
2021/12/18 14:03:27;;;;;;;;;;;2.00;99.90;;;;;;5075761;28;19924;-52
2021/12/18 14:05:55;;;;;;;;;;;2.00;99.90;;;;;;5075843;28;19921;-52
2021/12/18 14:08:22;;;;;;;;;;;2.00;99.90;;;;;;5075238;28;20343;-52
2021/12/18 14:10:50;;;;;;;;;;;2.00;99.90;;;;;;5075539;28;19920;-53
2021/12/18 14:13:16;;;;;;;;;;;2.00;99.90;;;;;;5075846;28;19920;-52
2021/12/18 14:16:29;;;;;;;49.70;23.35;;;1.90;99.90;;;;;;5176695;27;20102;-51
2021/12/18 14:19:13;;;;;;;;;;;1.90;99.90;;;;;;5156381;27;20048;-51
2021/12/18 14:21:45;;;;;;;57.28;24.10;;;1.90;99.90;;;;;;5150441;27;19919;-53
2021/12/18 14:24:14;;;;;;;54.75;23.80;;;1.70;99.90;;;;;;5150364;27;20555;-53
2021/12/18 14:26:58;;;;;;;48.38;21.38;;;1.70;99.90;;;;;;5150147;27;20042;-55
2021/12/18 14:29:27;;;;;;;47.58;22.45;;;1.60;99.90;;;;;;5149620;27;20051;-56
2021/12/18 14:31:56;;;;;;;51.13;22.38;;;1.60;99.90;;;;;;5146935;27;20039;-49
2021/12/18 14:34:34;;;;;;;34.80;16.63;;;1.60;99.90;;;;;;5146984;27;20039;-56
2021/12/18 14:37:13;;;;;;;35.80;18.65;;;1.60;99.90;;;;;;5146488;27;20088;-52
2021/12/18 14:39:43;;;;;;;36.30;16.48;;;1.50;99.90;;;;;;5149691;27;20039;-52
2021/12/18 14:42:24;;;;;;;32.33;14.82;;;1.40;99.90;;;;;;5149753;27;20499;-55
2021/12/18 14:44:58;;;;;;;31.85;15.85;;;1.30;99.90;;;;;;5148248;27;20043;-51
2021/12/18 14:47:43;;;;;;;34.00;17.83;;;1.30;99.90;;;;;;5147004;27;20087;-54
2021/12/18 14:50:14;;;;;;;36.63;17.58;;;1.20;99.90;;;;;;5147855;27;20034;-54
2021/12/18 14:52:50;;;;;;;34.88;17.10;;;1.10;99.90;;;;;;5149921;27;20047;-55
2021/12/18 14:55:22;;;;;;;36.58;17.10;;;1.10;99.90;;;;;;5149462;27;20043;-55
2021/12/18 14:57:58;;;;;;;39.00;19.15;;;1.00;99.90;;;;;;5149813;27;20414;-52
2021/12/18 15:00:30;;;;;;;52.30;21.98;;;1.00;99.90;;;;;;5149837;27;20039;-53
2021/12/18 15:03:01;;;;;;;51.30;24.13;;;1.00;99.90;;;;;;5149586;27;20065;-53
2021/12/18 15:05:42;;;;;;;181.98;72.18;;;1.00;99.90;;;;;;5149216;27;20168;-53
2021/12/18 15:08:16;;;;;;;41.78;20.83;;;1.00;99.90;;;;;;5149734;27;20057;-52
2021/12/18 15:10:54;;;;;;;31.10;16.90;;;0.90;99.90;;;;;;5149621;27;20448;-54
2021/12/18 15:13:23;;;;;;;36.58;17.77;;;0.80;99.90;;;;;;5149802;27;20142;-54
2021/12/18 15:16:13;;;;;;;36.83;17.05;;;0.80;99.90;;;;;;5148781;27;20064;-53
2021/12/18 15:18:43;;;;;;;36.08;17.52;;;0.80;99.90;;;;;;5149395;27;20047;-54
2021/12/18 15:21:10;;;;;;;31.63;15.38;;;0.70;99.90;;;;;;5149433;27;20122;-54
2021/12/18 15:23:37;;;;;;;;;;;0.60;99.90;;;;;;5149584;27;20078;-53
2021/12/18 15:26:04;;;;;;;43.45;21.23;;;0.50;99.90;;;;;;5127114;27;20419;-54